Aviation Digital Data Service (ADDS)

Output produced by METARs form (1812 UTC 19 August 2019)
found at http://www.aviationweather.gov/metar/data/
 
METAR text: RJOF 191649Z 34003KT 5000 -SHRA BR FEW005 BKN012 BKN020 25/24 Q1009 RMK 1ST005 5ST012 6CU020 A2980
Conditions at: RJOF (HOFU (JASDF) , JP) observed 1649 UTC 19 August 2019
Temperature: 25.0°C (77°F)
Dewpoint: 24.0°C (75°F) [RH = 94%]
Pressure (altimeter): 29.79 inches Hg (1009.0 mb)
Winds: from the NNW (340 degrees) at 3 MPH (3 knots; 1.5 m/s)
Visibility: 3 miles ( 5 km)
Ceiling: 1200 feet AGL
Clouds: few clouds at 500 feet AGL
broken clouds at 1200 feet AGL
broken clouds at 2000 feet AGL
Weather: -SHRA BR  (light rain showers, mist)

METAR text: RJOF 191306Z VRB02KT 5000 -SHRA BR FEW002 BKN010 BKN040 26/24 Q1008 RMK 1ST002 5ST010 6CU040 A2977
Conditions at: RJOF (HOFU (JASDF) , JP) observed 1306 UTC 19 August 2019
Temperature: 26.0°C (79°F)
Dewpoint: 24.0°C (75°F) [RH = 89%]
Pressure (altimeter): 29.76 inches Hg (1008.0 mb)
Winds: variable direction winds at 2 MPH (2 knots; 1.0 m/s)
Visibility: 3 miles ( 5 km)
Ceiling: 1000 feet AGL
Clouds: few clouds at 200 feet AGL
broken clouds at 1000 feet AGL
broken clouds at 4000 feet AGL
Weather: -SHRA BR  (light rain showers, mist)

METAR text: RJOF 191149Z VRB01KT 6000 -SHRA FEW002 BKN040 BKN080 25/24 Q1009 RMK 1ST002 5CU040 7AC080 A2981
Conditions at: RJOF (HOFU (JASDF) , JP) observed 1149 UTC 19 August 2019
Temperature: 25.0°C (77°F)
Dewpoint: 24.0°C (75°F) [RH = 94%]
Pressure (altimeter): 29.79 inches Hg (1009.0 mb)
Winds: variable direction winds at 1 MPH (1 knots; 0.5 m/s)
Visibility: 4 miles ( 6 km)
Ceiling: 4000 feet AGL
Clouds: few clouds at 200 feet AGL
broken clouds at 4000 feet AGL
broken clouds at 8000 feet AGL
Weather: -SHRA  (light rain showers)

METAR text: RJOF 191041Z 09003KT 6000 FEW002 BKN040 BKN080 25/24 Q1009 RMK 1ST002 5CU040 7AC080 A2980
Conditions at: RJOF (HOFU (JASDF) , JP) observed 1041 UTC 19 August 2019
Temperature: 25.0°C (77°F)
Dewpoint: 24.0°C (75°F) [RH = 94%]
Pressure (altimeter): 29.79 inches Hg (1009.0 mb)
Winds: from the E (90 degrees) at 3 MPH (3 knots; 1.5 m/s)
Visibility: 4 miles ( 6 km)
Ceiling: 4000 feet AGL
Clouds: few clouds at 200 feet AGL
broken clouds at 4000 feet AGL
broken clouds at 8000 feet AGL
Weather: no significant weather observed at this time

METAR text: RJOF 191021Z 13003KT 6000 -SHRA FEW002 BKN040 BKN080 26/24 Q1008 RMK 1ST002 5CU040 7AC080 A2979
Conditions at: RJOF (HOFU (JASDF) , JP) observed 1021 UTC 19 August 2019
Temperature: 26.0°C (79°F)
Dewpoint: 24.0°C (75°F) [RH = 89%]
Pressure (altimeter): 29.76 inches Hg (1008.0 mb)
Winds: from the SE (130 degrees) at 3 MPH (3 knots; 1.5 m/s)
Visibility: 4 miles ( 6 km)
Ceiling: 4000 feet AGL
Clouds: few clouds at 200 feet AGL
broken clouds at 4000 feet AGL
broken clouds at 8000 feet AGL
Weather: -SHRA  (light rain showers)

METAR text: RJOF 190951Z 13006KT 6000 FEW002 BKN040 BKN080 26/24 Q1008 RMK 1ST002 5CU040 7AC080 A2978
Conditions at: RJOF (HOFU (JASDF) , JP) observed 0951 UTC 19 August 2019
Temperature: 26.0°C (79°F)
Dewpoint: 24.0°C (75°F) [RH = 89%]
Pressure (altimeter): 29.76 inches Hg (1008.0 mb)
Winds: from the SE (130 degrees) at 7 MPH (6 knots; 3.1 m/s)
Visibility: 4 miles ( 6 km)
Ceiling: 4000 feet AGL
Clouds: few clouds at 200 feet AGL
broken clouds at 4000 feet AGL
broken clouds at 8000 feet AGL
Weather: no significant weather observed at this time

METAR text: RJOF 190841Z 08003KT 050V120 6000 -SHRA FEW008 BKN040 BKN080 26/24 Q1008 RMK 1ST008 5CU040 7AC080 A2978
Conditions at: RJOF (HOFU (JASDF) , JP) observed 0841 UTC 19 August 2019
Temperature: 26.0°C (79°F)
Dewpoint: 24.0°C (75°F) [RH = 89%]
Pressure (altimeter): 29.76 inches Hg (1008.0 mb)
Winds: from the E (80 degrees) at 3 MPH (3 knots; 1.5 m/s)
Visibility: 4 miles ( 6 km)
Ceiling: 4000 feet AGL
Clouds: few clouds at 800 feet AGL
broken clouds at 4000 feet AGL
broken clouds at 8000 feet AGL
Weather: -SHRA  (light rain showers)

METAR text: RJOF 190533Z 07005KT 050V120 7000 -SHRA FEW010 SCT020 BKN080 27/23 Q1008 RMK 1ST010 4CU020 7AC080 A2979
Conditions at: RJOF (HOFU (JASDF) , JP) observed 0533 UTC 19 August 2019
Temperature: 27.0°C (81°F)
Dewpoint: 23.0°C (73°F) [RH = 79%]
Pressure (altimeter): 29.76 inches Hg (1008.0 mb)
Winds: from the ENE (70 degrees) at 6 MPH (5 knots; 2.6 m/s)
Visibility: 4 miles ( 7 km)
Ceiling: 8000 feet AGL
Clouds: few clouds at 1000 feet AGL
scattered clouds at 2000 feet AGL
broken clouds at 8000 feet AGL
Weather: -SHRA  (light rain showers)

METAR text: RJOF 190452Z 14005KT 6000 FEW006 SCT020 BKN080 27/24 Q1009 RMK 1ST006 4CU020 7AC080 A2980
Conditions at: RJOF (HOFU (JASDF) , JP) observed 0452 UTC 19 August 2019
Temperature: 27.0°C (81°F)
Dewpoint: 24.0°C (75°F) [RH = 84%]
Pressure (altimeter): 29.79 inches Hg (1009.0 mb)
Winds: from the SE (140 degrees) at 6 MPH (5 knots; 2.6 m/s)
Visibility: 4 miles ( 6 km)
Ceiling: 8000 feet AGL
Clouds: few clouds at 600 feet AGL
scattered clouds at 2000 feet AGL
broken clouds at 8000 feet AGL
Weather: no significant weather observed at this time

METAR text: RJOF 190429Z 13007KT 100V170 6000 FEW006 BKN008 BKN020 27/24 Q1009 RMK 1ST006 6ST008 6CU020 A2980
Conditions at: RJOF (HOFU (JASDF) , JP) observed 0429 UTC 19 August 2019
Temperature: 27.0°C (81°F)
Dewpoint: 24.0°C (75°F) [RH = 84%]
Pressure (altimeter): 29.79 inches Hg (1009.0 mb)
Winds: from the SE (130 degrees) at 8 MPH (7 knots; 3.6 m/s)
Visibility: 4 miles ( 6 km)
Ceiling: 800 feet AGL
Clouds: few clouds at 600 feet AGL
broken clouds at 800 feet AGL
broken clouds at 2000 feet AGL
Weather: no significant weather observed at this time

METAR text: RJOF 190208Z 13009KT 4000 -SHRA BR FEW006 BKN008 BKN020 FEW020TCU 26/25 Q1009 RMK 1ST006 5ST008 5CU020 2TCU020 A2982 TCU N-NE
Conditions at: RJOF (HOFU (JASDF) , JP) observed 0208 UTC 19 August 2019
Temperature: 26.0°C (79°F)
Dewpoint: 25.0°C (77°F) [RH = 94%]
Pressure (altimeter): 29.79 inches Hg (1009.0 mb)
Winds: from the SE (130 degrees) at 10 MPH (9 knots; 4.6 m/s)
Visibility: 2.49 miles (4.01 km)
Ceiling: 800 feet AGL
Clouds: few clouds at 600 feet AGL
broken clouds at 800 feet AGL
broken clouds at 2000 feet AGL
few clouds at 2000 feet AGL
Weather: -SHRA BR  (light rain showers, mist)

METAR text: RJOF 190126Z 15007KT 7000 -RA FEW006 BKN010 BKN020 FEW020TCU 27/24 Q1009 RMK 1ST006 5ST010 5CU020 2TCU020 A2982 TCU N-NE FCST AMD 0107 BECMG 0101 8000 NSW SCT010ST BKN030CU BKN100AC TEMPO 0103 4000 -SHRA BR BKN010ST BKN020CU BKN100AC BECMG 0303 4000 -SHRA
Conditions at: RJOF (HOFU (JASDF) , JP) observed 0126 UTC 19 August 2019
Temperature: 27.0°C (81°F)
Dewpoint: 24.0°C (75°F) [RH = 84%]
Pressure (altimeter): 29.79 inches Hg (1009.0 mb)
Winds: from the SSE (150 degrees) at 8 MPH (7 knots; 3.6 m/s)
Visibility: 4 miles ( 7 km)
Ceiling: 1000 feet AGL
Clouds: few clouds at 600 feet AGL
broken clouds at 1000 feet AGL
broken clouds at 2000 feet AGL
few clouds at 2000 feet AGL
Weather: -RA  (light rain)

METAR text: RJOF 190107Z 14007KT 7000 -RA FEW008 SCT010 OVC080 27/24 Q1009 RMK 2ST008 4ST010 8AS080 A2981
Conditions at: RJOF (HOFU (JASDF) , JP) observed 0107 UTC 19 August 2019
Temperature: 27.0°C (81°F)
Dewpoint: 24.0°C (75°F) [RH = 84%]
Pressure (altimeter): 29.79 inches Hg (1009.0 mb)
Winds: from the SE (140 degrees) at 8 MPH (7 knots; 3.6 m/s)
Visibility: 4 miles ( 7 km)
Ceiling: 8000 feet AGL
Clouds: few clouds at 800 feet AGL
scattered clouds at 1000 feet AGL
overcast cloud deck at 8000 feet AGL
Weather: -RA  (light rain)

METAR text: RJOF 190048Z 14006KT 7000 FEW008 BKN015 BKN100 28/24 Q1009 RMK 1ST008 5CU015 7AC100 A2981
Conditions at: RJOF (HOFU (JASDF) , JP) observed 0048 UTC 19 August 2019
Temperature: 28.0°C (82°F)
Dewpoint: 24.0°C (75°F) [RH = 79%]
Pressure (altimeter): 29.79 inches Hg (1009.0 mb)
Winds: from the SE (140 degrees) at 7 MPH (6 knots; 3.1 m/s)
Visibility: 4 miles ( 7 km)
Ceiling: 1500 feet AGL
Clouds: few clouds at 800 feet AGL
broken clouds at 1500 feet AGL
broken clouds at 10000 feet AGL
Weather: no significant weather observed at this time

METAR text: RJOF 190039Z 14007KT 7000 FEW010 BKN018 BKN100 28/24 Q1009 RMK 1ST010 5CU018 7AC100 A2981
Conditions at: RJOF (HOFU (JASDF) , JP) observed 0039 UTC 19 August 2019
Temperature: 28.0°C (82°F)
Dewpoint: 24.0°C (75°F) [RH = 79%]
Pressure (altimeter): 29.79 inches Hg (1009.0 mb)
Winds: from the SE (140 degrees) at 8 MPH (7 knots; 3.6 m/s)
Visibility: 4 miles ( 7 km)
Ceiling: 1800 feet AGL
Clouds: few clouds at 1000 feet AGL
broken clouds at 1800 feet AGL
broken clouds at 10000 feet AGL
Weather: no significant weather observed at this time

METAR text: RJOF 190026Z 13005KT 100V160 7000 FEW012 BKN020 BKN100 28/24 Q1009 RMK 1CU012 5CU020 7AC100 A2980
Conditions at: RJOF (HOFU (JASDF) , JP) observed 0026 UTC 19 August 2019
Temperature: 28.0°C (82°F)
Dewpoint: 24.0°C (75°F) [RH = 79%]
Pressure (altimeter): 29.79 inches Hg (1009.0 mb)
Winds: from the SE (130 degrees) at 6 MPH (5 knots; 2.6 m/s)
Visibility: 4 miles ( 7 km)
Ceiling: 2000 feet AGL
Clouds: few clouds at 1200 feet AGL
broken clouds at 2000 feet AGL
broken clouds at 10000 feet AGL
Weather: no significant weather observed at this time

METAR text: RJOF 190009Z 09005KT 050V110 7000 FEW015 BKN025 BKN100 28/24 Q1008 RMK 1CU015 5CU025 7AC100 A2979
Conditions at: RJOF (HOFU (JASDF) , JP) observed 0009 UTC 19 August 2019
Temperature: 28.0°C (82°F)
Dewpoint: 24.0°C (75°F) [RH = 79%]
Pressure (altimeter): 29.76 inches Hg (1008.0 mb)
Winds: from the E (90 degrees) at 6 MPH (5 knots; 2.6 m/s)
Visibility: 4 miles ( 7 km)
Ceiling: 2500 feet AGL
Clouds: few clouds at 1500 feet AGL
broken clouds at 2500 feet AGL
broken clouds at 10000 feet AGL
Weather: no significant weather observed at this time